createdAt,value
2023-04-11T00:00:57.611Z,65.71
2023-04-11T00:03:25.909Z,66.05
2023-04-11T00:05:53.954Z,66.19
2023-04-11T00:08:22.016Z,66.59
2023-04-11T00:10:49.945Z,66.98
2023-04-11T00:13:19.686Z,67.22
2023-04-11T00:15:47.761Z,67.86
2023-04-11T00:18:17.089Z,69.00
2023-04-11T00:20:44.964Z,69.00
2023-04-11T00:23:13.221Z,70.05
2023-04-11T00:25:41.394Z,69.43
2023-04-11T00:28:09.317Z,69.09
2023-04-11T00:30:37.347Z,69.03
2023-04-11T00:33:05.388Z,68.56
2023-04-11T00:35:37.698Z,68.64
2023-04-11T00:38:05.655Z,68.40
2023-04-11T00:40:33.560Z,68.53
2023-04-11T00:43:01.542Z,67.99
2023-04-11T00:45:29.483Z,67.17
2023-04-11T00:47:57.476Z,67.06
2023-04-11T00:50:26.012Z,67.05
2023-04-11T00:52:57.706Z,66.24
2023-04-11T00:55:25.813Z,65.63
2023-04-11T00:57:55.783Z,65.02
2023-04-11T01:00:24.559Z,65.51
2023-04-11T01:02:52.618Z,64.63
2023-04-11T01:05:22.210Z,64.70
2023-04-11T01:07:54.802Z,65.21
2023-04-11T01:10:24.767Z,64.75
2023-04-11T01:12:53.964Z,64.58
2023-04-11T01:15:22.053Z,64.82
2023-04-11T01:17:50.250Z,64.53
2023-04-11T01:20:18.474Z,64.86
2023-04-11T01:22:47.574Z,64.49
2023-04-11T01:25:17.034Z,63.46
2023-04-11T01:27:44.942Z,64.15
2023-04-11T01:30:13.490Z,63.82
2023-04-11T01:32:41.357Z,63.70
2023-04-11T01:35:11.328Z,63.80
2023-04-11T01:37:39.960Z,63.55
2023-04-11T01:40:09.788Z,63.53
2023-04-11T01:42:39.931Z,63.60
2023-04-11T01:45:09.560Z,63.80
2023-04-11T01:47:37.607Z,63.73
2023-04-11T01:50:06.940Z,63.09
2023-04-11T01:52:34.836Z,63.10
2023-04-11T01:55:04.177Z,62.77
2023-04-11T01:57:32.147Z,63.43
2023-04-11T02:00:01.517Z,63.42
2023-04-11T02:02:29.551Z,62.90
2023-04-11T02:04:58.171Z,63.88
2023-04-11T02:07:26.173Z,63.49
2023-04-11T02:09:54.058Z,64.06
2023-04-11T02:12:22.015Z,63.42
2023-04-11T02:14:49.955Z,63.10
2023-04-11T02:17:20.848Z,63.35
2023-04-11T02:19:49.379Z,64.02
2023-04-11T02:22:17.304Z,64.01
2023-04-11T02:24:46.429Z,64.00
2023-04-11T02:27:14.518Z,63.91
2023-04-11T02:29:42.342Z,63.56
2023-04-11T02:32:10.554Z,64.61
2023-04-11T02:34:41.352Z,64.15
2023-04-11T02:37:09.391Z,64.27
2023-04-11T02:39:37.278Z,64.78
2023-04-11T02:42:05.447Z,65.04
2023-04-11T02:44:33.777Z,64.97
2023-04-11T02:47:02.329Z,65.36
2023-04-11T02:49:30.789Z,65.90
2023-04-11T02:52:01.443Z,65.99
2023-04-11T02:54:29.403Z,66.22
2023-04-11T02:57:02.159Z,65.81
2023-04-11T02:59:30.609Z,65.47
2023-04-11T03:02:00.543Z,65.32
2023-04-11T03:04:29.273Z,65.44
2023-04-11T03:07:14.491Z,65.15
2023-04-11T03:09:43.246Z,65.24
2023-04-11T03:12:11.309Z,65.04
2023-04-11T03:14:49.188Z,65.69
2023-04-11T03:17:17.272Z,65.46
2023-04-11T03:19:45.241Z,65.82
2023-04-11T03:22:14.647Z,65.38
2023-04-11T03:24:42.795Z,65.64
2023-04-11T03:27:10.765Z,65.58
2023-04-11T03:29:42.036Z,67.03
2023-04-11T03:32:16.623Z,67.47
2023-04-11T03:34:44.572Z,67.21
2023-04-11T03:37:15.020Z,68.99
2023-04-11T03:39:42.901Z,69.22
2023-04-11T03:42:12.603Z,69.64
2023-04-11T03:44:40.769Z,69.20
2023-04-11T03:47:08.826Z,69.77
2023-04-11T03:49:41.713Z,69.26
2023-04-11T03:52:11.485Z,69.36
2023-04-11T03:54:42.387Z,67.95
2023-04-11T03:57:11.826Z,67.63
2023-04-11T03:59:40.351Z,66.80
2023-04-11T04:02:10.988Z,66.17
2023-04-11T04:04:47.169Z,65.58
2023-04-11T04:07:28.905Z,65.96
2023-04-11T04:10:09.577Z,65.57
2023-04-11T04:12:37.534Z,65.22
2023-04-11T04:15:14.804Z,65.19
2023-04-11T04:17:45.237Z,65.23
2023-04-11T04:20:19.200Z,65.41
2023-04-11T04:22:53.907Z,64.46
2023-04-11T04:25:31.746Z,64.82
2023-04-11T04:28:01.030Z,64.37
2023-04-11T04:30:37.990Z,64.89
2023-04-11T04:33:12.342Z,64.99
2023-04-11T04:35:44.317Z,65.14
2023-04-11T04:38:17.834Z,64.57
2023-04-11T04:40:56.372Z,64.28
2023-04-11T04:43:27.219Z,64.28
2023-04-11T04:46:03.368Z,63.74
2023-04-11T04:48:40.122Z,64.31
2023-04-11T04:51:09.116Z,64.27
2023-04-11T04:53:38.767Z,63.61
2023-04-11T04:56:10.967Z,63.97
2023-04-11T04:58:42.088Z,63.75
2023-04-11T05:01:13.528Z,63.92
2023-04-11T05:03:41.760Z,64.27
2023-04-11T05:06:15.008Z,63.62
2023-04-11T05:08:46.477Z,63.22
2023-04-11T05:11:16.844Z,62.94
2023-04-11T05:13:44.708Z,63.01
2023-04-11T05:16:12.713Z,63.26
2023-04-11T05:18:40.824Z,63.04
2023-04-11T05:21:08.967Z,63.30
2023-04-11T05:23:41.868Z,62.98
2023-04-11T05:26:10.483Z,63.14
2023-04-11T05:28:41.524Z,62.28
2023-04-11T05:31:13.825Z,62.34
2023-04-11T05:33:42.166Z,62.25
2023-04-11T05:36:13.929Z,62.92
2023-04-11T05:38:42.221Z,62.74
2023-04-11T05:41:10.459Z,62.52
2023-04-11T05:43:38.402Z,62.84
2023-04-11T05:46:09.053Z,62.44
2023-04-11T05:48:38.181Z,62.19
2023-04-11T05:51:06.632Z,62.21
2023-04-11T05:53:35.348Z,62.08
2023-04-11T05:56:03.881Z,62.26
2023-04-11T05:58:31.778Z,62.07
2023-04-11T06:01:00.749Z,62.02
2023-04-11T06:03:30.107Z,61.78
2023-04-11T06:05:58.071Z,62.16
2023-04-11T06:08:25.953Z,62.03
2023-04-11T06:10:53.881Z,62.09
2023-04-11T06:13:21.732Z,61.53
2023-04-11T06:15:49.899Z,61.35
2023-04-11T06:18:17.761Z,60.77
2023-04-11T06:20:48.885Z,61.22
2023-04-11T06:23:16.814Z,61.07
2023-04-11T06:25:44.690Z,61.07
2023-04-11T06:28:12.583Z,60.51
2023-04-11T06:30:40.422Z,61.00
2023-04-11T06:33:08.372Z,61.12
2023-04-11T06:35:36.912Z,61.38
2023-04-11T06:38:06.181Z,61.26
2023-04-11T06:40:35.395Z,61.58
2023-04-11T06:43:03.264Z,61.45
2023-04-11T06:45:32.018Z,61.25
2023-04-11T06:47:59.988Z,61.88
2023-04-11T06:50:28.045Z,62.69
2023-04-11T06:52:58.265Z,62.63
2023-04-11T06:55:27.522Z,62.31
2023-04-11T06:57:55.586Z,62.17
2023-04-11T07:00:24.041Z,61.82
2023-04-11T07:02:52.579Z,62.61
2023-04-11T07:05:20.809Z,63.03
2023-04-11T07:07:48.832Z,63.30
2023-04-11T07:10:16.744Z,64.18
2023-04-11T07:12:45.978Z,64.63
2023-04-11T07:15:13.856Z,64.62
2023-04-11T07:17:41.731Z,63.74
2023-04-11T07:20:11.126Z,63.42
2023-04-11T07:22:42.415Z,62.59
2023-04-11T07:25:10.617Z,61.53
2023-04-11T07:27:38.900Z,61.35
2023-04-11T07:30:09.757Z,61.29
2023-04-11T07:32:37.632Z,61.36
2023-04-11T07:35:06.035Z,60.73
2023-04-11T07:37:33.889Z,60.48
2023-04-11T07:40:04.514Z,60.53
2023-04-11T07:42:32.504Z,60.15
2023-04-11T07:45:00.353Z,60.50
2023-04-11T07:47:29.729Z,59.64
2023-04-11T07:49:58.568Z,60.33
2023-04-11T07:52:27.027Z,60.35
2023-04-11T07:54:55.834Z,59.60
2023-04-11T07:57:23.743Z,60.07
2023-04-11T07:59:51.895Z,60.21
2023-04-11T08:02:19.885Z,59.83
2023-04-11T08:04:49.434Z,59.75
2023-04-11T08:07:17.498Z,59.26
2023-04-11T08:09:45.392Z,59.25
2023-04-11T08:12:13.268Z,59.69
2023-04-11T08:14:41.133Z,59.36
2023-04-11T08:17:21.119Z,58.84
2023-04-11T08:19:57.470Z,59.13
2023-04-11T08:22:26.004Z,58.67
2023-04-11T08:24:53.910Z,59.13
2023-04-11T08:27:21.933Z,58.91
2023-04-11T08:29:49.755Z,58.50
2023-04-11T08:32:17.671Z,59.29
2023-04-11T08:34:45.564Z,58.91
2023-04-11T08:37:14.901Z,59.24
2023-04-11T08:39:42.753Z,58.92
2023-04-11T08:42:23.495Z,58.88
2023-04-11T08:44:54.561Z,58.54
2023-04-11T08:47:22.634Z,57.80
2023-04-11T08:49:51.124Z,57.56
2023-04-11T08:52:21.392Z,57.20
2023-04-11T08:54:50.127Z,57.32
2023-04-11T08:57:28.343Z,57.34
2023-04-11T08:59:57.650Z,57.05
2023-04-11T09:02:25.667Z,56.85
2023-04-11T09:04:54.611Z,56.42
2023-04-11T09:07:23.913Z,56.50
2023-04-11T09:09:51.921Z,55.90
2023-04-11T09:12:29.617Z,56.22
2023-04-11T09:14:57.874Z,56.08
2023-04-11T09:17:25.924Z,56.73
2023-04-11T09:19:53.976Z,57.20
2023-04-11T09:22:36.501Z,57.32
2023-04-11T09:25:04.823Z,57.53
2023-04-11T09:27:32.707Z,57.72
2023-04-11T09:30:03.681Z,57.82
2023-04-11T09:32:34.008Z,57.89
2023-04-11T09:35:09.617Z,58.28
2023-04-11T09:37:46.756Z,57.97
2023-04-11T09:40:16.647Z,58.17
2023-04-11T09:42:46.021Z,58.35
2023-04-11T09:45:19.456Z,57.81
2023-04-11T09:47:49.013Z,57.24
2023-04-11T09:50:17.504Z,57.04
2023-04-11T09:52:47.495Z,56.85
2023-04-11T09:55:16.848Z,56.53
2023-04-11T09:57:47.477Z,56.50
2023-04-11T10:00:18.067Z,56.40
2023-04-11T10:02:48.978Z,55.79
2023-04-11T10:05:18.943Z,55.44
2023-04-11T10:07:50.463Z,55.42
2023-04-11T10:10:21.054Z,55.04
2023-04-11T10:12:50.219Z,53.94
2023-04-11T10:15:19.019Z,53.29
2023-04-11T10:18:14.078Z,53.01
2023-04-11T10:20:44.812Z,52.14
2023-04-11T10:23:16.038Z,52.52
2023-04-11T10:25:52.503Z,52.52
2023-04-11T10:28:38.765Z,52.12
2023-04-11T10:31:09.952Z,51.71
2023-04-11T10:33:39.676Z,51.39
2023-04-11T10:36:10.251Z,51.56
2023-04-11T10:38:51.190Z,51.06
2023-04-11T10:41:31.795Z,50.57
2023-04-11T10:44:15.708Z,49.32
2023-04-11T10:46:51.891Z,48.83
2023-04-11T10:49:37.627Z,48.16
2023-04-11T10:52:20.578Z,47.97
2023-04-11T10:54:50.849Z,47.39
2023-04-11T10:57:19.339Z,48.04
2023-04-11T11:00:13.121Z,48.24
2023-04-11T11:02:42.500Z,46.83
2023-04-11T11:05:21.922Z,46.33
2023-04-11T11:07:51.722Z,46.55
2023-04-11T11:10:41.537Z,46.23
2023-04-11T11:13:09.838Z,45.70
2023-04-11T11:15:38.589Z,45.07
2023-04-11T11:18:09.470Z,45.32
2023-04-11T11:20:37.938Z,44.41
2023-04-11T11:23:07.742Z,43.96
2023-04-11T11:25:36.267Z,44.72
2023-04-11T11:28:06.726Z,45.87
2023-04-11T11:30:35.392Z,45.31
2023-04-11T11:33:16.045Z,45.27
2023-04-11T11:35:46.429Z,45.86
2023-04-11T11:38:14.571Z,45.41
2023-04-11T11:40:42.512Z,46.10
2023-04-11T11:43:12.162Z,45.97
2023-04-11T11:45:40.239Z,46.23
2023-04-11T11:48:08.364Z,47.53
2023-04-11T11:50:36.302Z,47.72
2023-04-11T11:53:14.379Z,48.29
2023-04-11T11:55:43.381Z,47.99
2023-04-11T11:58:12.616Z,48.83
2023-04-11T12:00:41.581Z,49.48
2023-04-11T12:03:10.952Z,49.60
2023-04-11T12:05:39.472Z,49.68
2023-04-11T12:08:08.963Z,49.61
2023-04-11T12:10:39.386Z,49.65
2023-04-11T12:13:19.925Z,49.68
2023-04-11T12:15:51.801Z,49.88
2023-04-11T12:18:21.723Z,50.09
2023-04-11T12:20:49.793Z,50.31
2023-04-11T12:23:17.939Z,50.59
2023-04-11T12:25:46.685Z,50.86
2023-04-11T12:28:14.970Z,51.11
2023-04-11T12:30:44.278Z,52.27
2023-04-11T12:33:12.152Z,52.59
2023-04-11T12:35:40.117Z,53.21
2023-04-11T12:38:08.196Z,53.55
2023-04-11T12:40:36.230Z,53.66
2023-04-11T12:43:04.112Z,53.54
2023-04-11T12:45:33.180Z,53.85
2023-04-11T12:48:02.652Z,54.07
2023-04-11T12:50:30.623Z,54.46
2023-04-11T12:52:58.707Z,54.37
2023-04-11T12:55:26.824Z,54.69
2023-04-11T12:57:54.733Z,55.89
2023-04-11T13:00:23.133Z,56.47
2023-04-11T13:02:51.218Z,57.48
2023-04-11T13:05:20.574Z,59.11
2023-04-11T13:07:48.743Z,61.42
2023-04-11T13:10:17.067Z,63.64
2023-04-11T13:12:46.374Z,65.79
2023-04-11T13:15:16.215Z,67.92
2023-04-11T13:17:44.705Z,68.72
2023-04-11T13:20:13.609Z,69.74
2023-04-11T13:22:44.263Z,70.46
2023-04-11T13:25:13.027Z,69.95
2023-04-11T13:27:42.255Z,69.97
2023-04-11T13:30:11.199Z,70.40
2023-04-11T13:32:39.341Z,70.97
2023-04-11T13:35:08.236Z,71.01
2023-04-11T13:37:36.249Z,71.74
2023-04-11T13:40:08.434Z,72.01
2023-04-11T13:42:36.614Z,71.76
2023-04-11T13:45:05.514Z,71.82
2023-04-11T13:47:34.739Z,71.89
2023-04-11T13:50:04.126Z,72.14
2023-04-11T13:52:32.000Z,72.20
2023-04-11T13:54:59.927Z,71.85
2023-04-11T13:57:29.278Z,71.78
2023-04-11T13:59:57.309Z,72.07
2023-04-11T14:02:25.258Z,71.54
2023-04-11T14:04:53.550Z,72.22
2023-04-11T14:07:21.428Z,72.32
2023-04-11T14:09:49.273Z,73.22
2023-04-11T14:12:17.131Z,72.76
2023-04-11T14:14:46.293Z,72.63
2023-04-11T14:17:14.157Z,73.17
2023-04-11T14:19:42.327Z,73.00
2023-04-11T14:22:10.724Z,73.33
2023-04-11T14:24:38.669Z,73.36
2023-04-11T14:27:06.600Z,73.45
2023-04-11T14:29:35.135Z,73.59
2023-04-11T14:32:05.286Z,73.60
2023-04-11T14:34:33.394Z,74.37
2023-04-11T14:37:01.286Z,73.72
2023-04-11T14:39:29.290Z,74.48
2023-04-11T14:41:57.160Z,74.16
2023-04-11T14:44:25.064Z,73.81
2023-04-11T14:46:52.943Z,74.16
2023-04-11T14:49:22.265Z,74.18
2023-04-11T14:51:50.206Z,74.36
2023-04-11T14:54:18.111Z,74.84
2023-04-11T14:56:47.518Z,75.19
2023-04-11T14:59:15.488Z,74.83
2023-04-11T15:01:43.495Z,75.16
2023-04-11T15:04:11.608Z,75.08
2023-04-11T15:06:40.938Z,75.16
2023-04-11T15:09:09.448Z,75.13
2023-04-11T15:11:37.533Z,76.00
2023-04-11T15:14:05.582Z,75.48
2023-04-11T15:16:33.397Z,75.96
2023-04-11T15:19:01.308Z,76.03
2023-04-11T15:21:32.566Z,75.00
2023-04-11T15:24:06.509Z,75.28
2023-04-11T15:26:34.536Z,74.93
2023-04-11T15:29:02.397Z,75.28
2023-04-11T15:31:30.707Z,75.81
2023-04-11T15:34:01.356Z,75.82
2023-04-11T15:36:32.132Z,76.21
2023-04-11T15:39:01.691Z,76.07
2023-04-11T15:41:30.552Z,76.17
2023-04-11T15:44:00.451Z,76.49
2023-04-11T15:46:29.128Z,76.41
2023-04-11T15:48:56.949Z,76.11
2023-04-11T15:51:24.989Z,75.95
2023-04-11T15:53:52.824Z,76.39
2023-04-11T15:56:22.327Z,76.63
2023-04-11T15:58:50.393Z,76.24
2023-04-11T16:01:23.029Z,76.34
2023-04-11T16:03:51.702Z,76.73
2023-04-11T16:06:20.010Z,75.83
2023-04-11T16:08:47.889Z,76.55
2023-04-11T16:11:15.766Z,76.33
2023-04-11T16:13:45.118Z,75.38
2023-04-11T16:16:12.991Z,75.82
2023-04-11T16:18:40.967Z,76.20
2023-04-11T16:21:13.709Z,76.19
2023-04-11T16:23:42.169Z,75.70
2023-04-11T16:26:10.711Z,76.45
2023-04-11T16:28:38.689Z,76.32
2023-04-11T16:31:09.260Z,76.82
2023-04-11T16:33:37.251Z,76.68
2023-04-11T16:36:05.682Z,77.13
2023-04-11T16:38:33.598Z,76.77
2023-04-11T16:41:01.542Z,76.66
2023-04-11T16:43:29.345Z,75.93
2023-04-11T16:45:57.555Z,75.57
2023-04-11T16:48:27.109Z,75.09
2023-04-11T16:50:54.960Z,74.51
2023-04-11T16:53:22.838Z,73.54
2023-04-11T16:55:52.554Z,72.24
2023-04-11T16:58:20.482Z,70.67
2023-04-11T17:00:49.164Z,70.04
2023-04-11T17:03:18.156Z,67.63
2023-04-11T17:05:47.538Z,68.20
2023-04-11T17:08:15.690Z,67.56
2023-04-11T17:10:44.098Z,68.07
2023-04-11T17:13:12.758Z,68.17
2023-04-11T17:15:41.035Z,69.10
2023-04-11T17:18:09.056Z,69.27
2023-04-11T17:20:37.141Z,69.80
2023-04-11T17:23:06.500Z,69.62
2023-04-11T17:25:34.397Z,69.80
2023-04-11T17:28:02.423Z,69.87
2023-04-11T17:30:31.764Z,70.55
2023-04-11T17:33:00.208Z,69.93
2023-04-11T17:35:28.385Z,70.01
2023-04-11T17:37:56.307Z,71.10
2023-04-11T17:40:25.537Z,70.16
2023-04-11T17:42:53.525Z,70.88
2023-04-11T17:45:22.609Z,70.52
2023-04-11T17:47:51.027Z,70.84
2023-04-11T17:50:20.042Z,70.73
2023-04-11T17:52:48.514Z,71.16
2023-04-11T17:55:17.997Z,71.26
2023-04-11T17:57:49.028Z,70.85
2023-04-11T18:00:23.151Z,71.14
2023-04-11T18:02:52.888Z,71.32
2023-04-11T18:05:25.165Z,72.00
2023-04-11T18:07:56.385Z,72.52
2023-04-11T18:10:25.884Z,72.69
2023-04-11T18:12:57.482Z,73.12
2023-04-11T18:15:26.833Z,72.80
2023-04-11T18:17:55.109Z,72.83
2023-04-11T18:20:23.014Z,73.02
2023-04-11T18:22:54.858Z,73.35
2023-04-11T18:25:23.403Z,73.05
2023-04-11T18:27:51.499Z,73.57
2023-04-11T18:30:21.032Z,72.38
2023-04-11T18:32:50.957Z,71.98
2023-04-11T18:35:19.408Z,71.92
2023-04-11T18:37:47.438Z,72.02
2023-04-11T18:40:15.937Z,71.91
2023-04-11T18:42:46.458Z,72.07
2023-04-11T18:45:15.562Z,72.11
2023-04-11T18:47:46.223Z,72.43
2023-04-11T18:50:15.099Z,72.37
2023-04-11T18:52:44.748Z,72.48
2023-04-11T18:55:13.413Z,71.87
2023-04-11T18:57:43.297Z,71.85
2023-04-11T19:00:18.577Z,73.15
2023-04-11T19:02:50.608Z,73.38
2023-04-11T19:05:19.281Z,72.01
2023-04-11T19:07:47.514Z,71.32
2023-04-11T19:10:15.443Z,71.22
2023-04-11T19:12:43.550Z,70.79
2023-04-11T19:15:12.881Z,71.19
2023-04-11T19:17:41.217Z,70.92
2023-04-11T19:20:13.576Z,71.42
2023-04-11T19:22:41.993Z,71.58
2023-04-11T19:25:12.122Z,71.59
2023-04-11T19:27:42.052Z,71.10
2023-04-11T19:30:13.509Z,71.57
2023-04-11T19:32:43.708Z,71.53
2023-04-11T19:35:13.428Z,72.02
2023-04-11T19:37:41.845Z,72.26
2023-04-11T19:40:13.475Z,72.40
2023-04-11T19:42:41.862Z,72.47
2023-04-11T19:45:10.666Z,72.94
2023-04-11T19:47:39.728Z,72.68
2023-04-11T19:50:08.910Z,72.00
2023-04-11T19:52:38.267Z,72.35
2023-04-11T19:55:07.608Z,73.22
2023-04-11T19:57:36.362Z,72.74
2023-04-11T20:00:11.489Z,73.25
2023-04-11T20:02:39.927Z,73.81
2023-04-11T20:05:09.143Z,73.94
2023-04-11T20:07:39.029Z,73.89
2023-04-11T20:10:08.242Z,73.96
2023-04-11T20:12:36.274Z,73.45
2023-04-11T20:15:04.391Z,73.24
2023-04-11T20:17:32.268Z,72.68
2023-04-11T20:20:05.551Z,73.17
2023-04-11T20:22:33.479Z,72.70
2023-04-11T20:25:03.700Z,72.91
2023-04-11T20:27:31.600Z,73.33
2023-04-11T20:30:00.610Z,73.35
2023-04-11T20:32:29.154Z,72.60
2023-04-11T20:34:57.804Z,72.01
2023-04-11T20:37:25.787Z,71.83
2023-04-11T20:39:53.682Z,71.53
2023-04-11T20:42:22.998Z,71.07
2023-04-11T20:44:51.041Z,70.69
2023-04-11T20:47:19.051Z,70.66
2023-04-11T20:49:49.689Z,70.45
2023-04-11T20:52:18.280Z,70.86
2023-04-11T20:54:46.535Z,71.08
2023-04-11T20:57:14.456Z,70.79
2023-04-11T20:59:43.676Z,70.37
2023-04-11T21:02:11.625Z,69.71
2023-04-11T21:04:39.529Z,69.98
2023-04-11T21:07:07.718Z,69.76
2023-04-11T21:09:36.388Z,68.84
2023-04-11T21:12:04.909Z,68.69
2023-04-11T21:14:33.192Z,68.89
2023-04-11T21:17:02.486Z,67.90
2023-04-11T21:19:30.395Z,66.70
2023-04-11T21:21:58.362Z,66.84
2023-04-11T21:24:26.935Z,66.99
2023-04-11T21:26:54.876Z,66.57
2023-04-11T21:29:22.666Z,66.80
2023-04-11T21:31:50.627Z,66.25
2023-04-11T21:34:20.075Z,66.14
2023-04-11T21:36:47.995Z,66.64
2023-04-11T21:39:15.814Z,66.05
2023-04-11T21:41:43.724Z,66.32
2023-04-11T21:44:11.550Z,66.77
2023-04-11T21:46:39.528Z,66.37
2023-04-11T21:49:07.473Z,66.81
2023-04-11T21:51:36.675Z,67.07
2023-04-11T21:54:05.064Z,66.23
2023-04-11T21:56:33.014Z,66.90
2023-04-11T21:59:00.940Z,67.22
2023-04-11T22:01:29.193Z,66.68
2023-04-11T22:03:58.898Z,67.26
2023-04-11T22:06:30.354Z,67.34
2023-04-11T22:09:01.457Z,67.01
2023-04-11T22:11:29.613Z,66.79
2023-04-11T22:13:58.307Z,66.68
2023-04-11T22:16:30.681Z,66.85
2023-04-11T22:19:00.447Z,67.39
2023-04-11T22:21:32.446Z,67.43
2023-04-11T22:24:02.160Z,67.91
2023-04-11T22:26:34.139Z,67.58
2023-04-11T22:29:05.122Z,67.39
2023-04-11T22:31:34.706Z,67.78
2023-04-11T22:34:02.752Z,68.22
2023-04-11T22:36:35.694Z,67.55
2023-04-11T22:39:05.652Z,67.70
2023-04-11T22:41:34.041Z,67.33
2023-04-11T22:44:02.523Z,68.01
2023-04-11T22:46:32.206Z,68.63
2023-04-11T22:49:00.178Z,67.74
2023-04-11T22:51:30.085Z,67.53
2023-04-11T22:53:58.721Z,67.80
2023-04-11T22:56:28.179Z,67.34
2023-04-11T22:58:56.035Z,66.92
2023-04-11T23:01:23.958Z,67.05
2023-04-11T23:03:51.945Z,66.88
2023-04-11T23:06:19.772Z,67.16
2023-04-11T23:08:47.720Z,66.74
2023-04-11T23:11:15.594Z,67.12
2023-04-11T23:13:44.894Z,66.91
2023-04-11T23:16:13.259Z,66.66
2023-04-11T23:18:41.174Z,67.08
2023-04-11T23:21:13.164Z,67.04
2023-04-11T23:23:41.622Z,67.02
2023-04-11T23:26:10.841Z,67.21
2023-04-11T23:28:38.730Z,67.71
2023-04-11T23:31:08.217Z,67.15
2023-04-11T23:33:36.212Z,67.66
2023-04-11T23:36:04.357Z,67.08
2023-04-11T23:38:32.677Z,67.28
2023-04-11T23:41:00.622Z,66.84
2023-04-11T23:43:28.486Z,67.05
2023-04-11T23:45:56.501Z,66.99
2023-04-11T23:48:26.072Z,67.50
2023-04-11T23:50:53.997Z,67.32
2023-04-11T23:53:21.977Z,67.32
2023-04-11T23:55:49.907Z,67.29
2023-04-11T23:58:18.017Z,68.04
